Time;durP1;ratioP1;P1;durP2;ratioP2;P2;SDS_P1;SDS_P2;PMS_P1;PMS_P2;Temp;Humidity;BMP_temperature;BMP_pressure;BME280_temperature;BME280_humidity;BME280_pressure;Samples;Min_cycle;Max_cycle;Signal;HPM_P1;HPM_P2
2023/01/08 00:01:55;;;;;;;5.30;2.45;;;;;;;16.80;61.04;100318.72;5003759;28;20060;-72
2023/01/08 00:04:20;;;;;;;4.80;2.85;;;;;;;17.01;59.96;100314.81;5001903;28;20042;-73
2023/01/08 00:06:46;;;;;;;2.95;2.40;;;;;;;16.32;61.65;100293.09;5003082;28;20129;-74
2023/01/08 00:09:11;;;;;;;4.82;2.90;;;;;;;16.75;60.53;100294.31;5003506;28;20494;-72
2023/01/08 00:11:37;;;;;;;5.82;2.70;;;;;;;16.67;61.51;100296.53;5003749;28;20057;-72
2023/01/08 00:14:03;;;;;;;4.13;2.95;;;;;;;17.04;59.78;100306.13;5004348;28;20058;-73
2023/01/08 00:16:28;;;;;;;4.15;2.55;;;;;;;16.09;62.49;100321.63;5000982;28;20142;-73
2023/01/08 00:18:54;;;;;;;4.65;3.08;;;;;;;16.79;61.34;100304.34;5005963;28;20044;-72
2023/01/08 00:21:19;;;;;;;4.18;2.85;;;;;;;16.90;61.38;100302.41;5006219;28;20037;-73
2023/01/08 00:23:45;;;;;;;7.00;2.47;;;;;;;15.88;64.61;100309.19;5004454;28;20477;-74
2023/01/08 00:26:12;;;;;;;5.35;3.28;;;;;;;16.15;65.08;100304.28;5004230;28;20116;-75
2023/01/08 00:28:38;;;;;;;6.63;3.42;;;;;;;16.32;64.27;100309.38;5003335;28;20508;-74
2023/01/08 00:31:06;;;;;;;4.35;2.63;;;;;;;15.75;66.18;100342.25;5002944;28;20390;-73
2023/01/08 00:33:32;;;;;;;6.40;3.10;;;;;;;15.90;66.06;100342.25;5002674;28;20038;-75
2023/01/08 00:35:57;;;;;;;7.25;1.67;;;;;;;12.04;78.95;100400.22;5007158;28;20042;-77
2023/01/08 00:38:28;;;;;;;2.38;0.88;;;;;;;11.38;79.16;100347.13;4997762;28;20050;-81
2023/01/08 00:40:54;;;;;;;2.95;1.13;;;;;;;12.66;78.26;100338.88;5003522;28;20049;-78
2023/01/08 00:43:20;;;;;;;3.10;1.45;;;;;;;13.38;73.56;100325.94;5007869;28;20042;-78
2023/01/08 00:45:45;;;;;;;3.42;1.35;;;;;;;13.36;71.36;100345.09;4991115;28;20064;-79
2023/01/08 00:48:11;;;;;;;5.45;1.20;;;;;;;13.82;69.77;100324.69;5007487;28;20367;-76
2023/01/08 00:50:36;;;;;;;7.65;1.92;;;;;;;13.32;70.79;100326.97;5004107;28;20045;-74
2023/01/08 00:53:02;;;;;;;2.88;1.40;;;;;;;13.09;71.95;100326.19;5001702;28;20038;-78
2023/01/08 00:55:28;;;;;;;4.93;1.95;;;;;;;13.19;72.38;100322.78;5004296;28;20038;-76
2023/01/08 00:57:54;;;;;;;6.35;1.50;;;;;;;13.44;71.41;100322.22;5004941;28;20104;-77
2023/01/08 01:00:20;;;;;;;9.88;1.50;;;;;;;14.07;68.65;100308.69;5001310;28;20494;-77
2023/01/08 01:02:45;;;;;;;6.50;1.45;;;;;;;13.36;70.83;100314.59;5002606;28;20092;-77
2023/01/08 01:05:14;;;;;;;7.75;2.40;;;;;;;13.25;71.68;100313.66;5005139;28;20121;-76
2023/01/08 01:07:40;;;;;;;7.00;1.85;;;;;;;13.85;69.06;100314.19;5006746;28;20045;-75
2023/01/08 01:10:06;;;;;;;8.65;2.10;;;;;;;13.42;71.41;100308.16;5002995;28;20506;-78
2023/01/08 01:12:32;;;;;;;13.25;1.48;;;;;;;13.36;71.98;100301.09;5009172;28;20066;-76
2023/01/08 01:14:57;;;;;;;5.45;1.48;;;;;;;13.61;71.07;100298.59;5003948;28;20038;-76
2023/01/08 01:17:22;;;;;;;8.55;1.50;;;;;;;14.10;70.00;100291.94;5003043;28;20533;-76
2023/01/08 01:19:48;;;;;;;11.40;2.33;;;;;;;13.65;70.25;100289.75;5002234;28;20037;-76
2023/01/08 01:22:13;;;;;;;12.73;2.10;;;;;;;13.36;70.86;100276.81;5004095;28;20096;-78
2023/01/08 01:24:38;;;;;;;17.38;2.60;;;;;;;13.91;69.42;100282.63;5003646;28;20033;-75
2023/01/08 01:27:04;;;;;;;8.18;1.40;;;;;;;14.92;66.17;100273.09;5003341;28;20030;-76
2023/01/08 01:29:30;;;;;;;9.45;2.80;;;;;;;15.07;65.32;100275.84;5001846;28;20085;-77
2023/01/08 01:31:55;;;;;;;15.77;1.98;;;;;;;15.08;64.87;100288.28;5008261;28;20105;-76
2023/01/08 01:34:20;;;;;;;12.43;2.47;;;;;;;14.97;65.13;100283.94;5010903;28;20030;-76
2023/01/08 01:36:46;;;;;;;10.85;1.80;;;;;;;15.33;64.85;100296.44;5012535;28;20121;-76
2023/01/08 01:39:11;;;;;;;10.65;2.28;;;;;;;15.32;64.47;100291.28;5011851;28;20030;-76
2023/01/08 01:41:43;;;;;;;12.15;2.08;;;;;;;15.72;63.12;100285.91;5011638;28;20045;-76
2023/01/08 01:44:41;;;;;;;15.65;2.53;;;;;;;15.05;65.25;100288.81;5014366;28;20038;-76
2023/01/08 01:47:36;;;;;;;9.80;1.73;;;;;;;15.75;63.28;100293.50;5015353;28;20505;-74
2023/01/08 01:50:04;;;;;;;6.40;1.30;;;;;;;15.06;65.12;100297.72;5015083;28;20050;-76
2023/01/08 01:52:35;;;;;;;6.70;1.45;;;;;;;15.64;62.82;100286.47;5015274;28;20562;-75
2023/01/08 01:55:03;;;;;;;7.40;1.48;;;;;;;15.82;62.69;100289.41;5013343;28;20042;-75
2023/01/08 01:57:29;;;;;;;9.27;1.77;;;;;;;15.95;62.11;100281.81;5015459;28;20485;-76
2023/01/08 01:59:57;;;;;;;6.57;1.90;;;;;;;15.70;62.90;100282.66;5015185;28;20026;-75
2023/01/08 02:02:22;;;;;;;11.88;1.85;;;;;;;15.45;63.67;100285.41;5014941;28;20057;-74
2023/01/08 02:04:48;;;;;;;5.25;2.53;;;;;;;15.92;62.78;100283.16;5014944;28;20053;-75
2023/01/08 02:07:26;;;;;;;5.43;2.38;;;;;;;15.83;63.26;100268.56;5015468;28;20409;-76
2023/01/08 02:10:00;;;;;;;6.32;2.10;;;;;;;15.89;63.01;100275.59;5015266;28;20034;-76
2023/01/08 02:12:32;;;;;;;4.72;1.70;;;;;;;15.98;62.58;100273.16;5014903;28;20037;-74
2023/01/08 02:15:17;;;;;;;4.68;1.80;;;;;;;16.06;62.10;100284.22;5014692;28;20041;-76
2023/01/08 02:18:12;;;;;;;5.47;2.00;;;;;;;15.89;62.98;100272.88;5013861;28;20041;-76
2023/01/08 02:20:46;;;;;;;8.23;2.05;;;;;;;15.96;62.11;100275.31;5012124;28;20056;-76
2023/01/08 02:23:38;;;;;;;9.68;2.58;;;;;;;16.03;62.08;100278.53;5014375;28;20054;-76
2023/01/08 02:26:16;;;;;;;10.45;2.33;;;;;;;16.04;62.23;100270.13;5014175;28;20387;-77
2023/01/08 02:28:51;;;;;;;6.47;2.40;;;;;;;15.83;63.42;100271.25;5014264;28;20042;-77
2023/01/08 02:31:19;;;;;;;11.73;2.72;;;;;;;15.77;63.14;100262.34;5012556;28;20046;-76
2023/01/08 02:33:44;;;;;;;12.45;4.05;;;;;;;16.13;62.39;100254.13;5014784;28;20029;-76
2023/01/08 02:36:16;;;;;;;18.38;4.07;;;;;;;16.20;62.20;100260.06;5014457;28;20045;-76
2023/01/08 02:38:53;;;;;;;10.05;3.03;;;;;;;16.33;61.79;100249.44;5014126;28;20097;-76
2023/01/08 02:41:24;;;;;;;5.85;2.90;;;;;;;16.52;60.84;100255.09;5013839;28;20057;-76
2023/01/08 02:43:53;;;;;;;6.15;3.63;;;;;;;16.29;61.40;100240.25;5013191;28;20034;-76
2023/01/08 02:46:24;;;;;;;13.70;5.43;;;;;;;16.23;62.03;100240.53;5013787;28;20041;-75
2023/01/08 02:49:01;;;;;;;;;;;;;;;16.13;62.46;100235.97;5015475;28;20053;-76
2023/01/08 02:51:34;;;;;;;10.13;4.03;;;;;;;16.46;61.80;100234.47;5013996;28;20392;-77
2023/01/08 02:54:05;;;;;;;8.05;4.57;;;;;;;16.09;63.10;100239.50;5013464;28;20744;-77
2023/01/08 02:56:51;;;;;;;;;;;;;;;16.40;62.24;100230.97;5014572;28;20105;-75
2023/01/08 02:59:19;;;;;;;6.68;4.65;;;;;;;16.43;62.49;100222.28;5013395;28;19918;-75
2023/01/08 03:01:46;;;;;;;7.43;4.93;;;;;;;16.39;62.86;100223.13;4994250;28;20561;-75
2023/01/08 03:04:16;;;;;;;5.25;4.43;;;;;;;16.45;62.54;100222.81;5005406;28;20030;-74
2023/01/08 03:06:42;;;;;;;11.68;4.38;;;;;;;15.85;63.41;100217.63;5014271;28;20034;-74
2023/01/08 03:09:08;;;;;;;7.85;4.68;;;;;;;16.08;64.25;100227.06;5014369;28;20398;-76
2023/01/08 03:11:45;;;;;;;10.27;4.10;;;;;;;15.91;64.52;100230.06;5013266;28;20046;-76
2023/01/08 03:14:26;;;;;;;8.32;4.55;;;;;;;15.56;65.88;100220.13;5013705;28;20065;-74
2023/01/08 03:16:59;;;;;;;15.32;4.35;;;;;;;15.52;66.21;100221.75;5013522;28;20045;-75
2023/01/08 03:19:31;;;;;;;8.50;4.22;;;;;;;15.76;65.16;100222.78;5013147;28;20546;-75
2023/01/08 03:21:58;;;;;;;8.65;4.10;;;;;;;15.78;64.64;100217.91;5013361;28;20035;-76
2023/01/08 03:24:27;;;;;;;6.57;3.53;;;;;;;15.61;65.63;100217.38;5013774;28;20022;-76
2023/01/08 03:26:57;;;;;;;7.97;3.55;;;;;;;15.72;65.91;100229.03;5013800;28;20217;-76
2023/01/08 03:29:24;;;;;;;5.60;2.92;;;;;;;14.82;68.89;100225.19;5013271;28;20038;-75
2023/01/08 03:31:53;;;;;;;9.90;3.08;;;;;;;14.97;68.15;100235.22;5013390;28;20052;-77
2023/01/08 03:34:20;;;;;;;4.55;2.60;;;;;;;15.00;67.89;100229.28;5013146;28;20041;-74
2023/01/08 03:36:51;;;;;;;9.15;2.75;;;;;;;15.13;67.02;100226.06;5013359;28;20048;-76
2023/01/08 03:39:22;;;;;;;4.53;2.35;;;;;;;14.64;68.74;100228.38;5013239;28;20080;-76
2023/01/08 03:41:48;;;;;;;6.43;2.97;;;;;;;14.90;68.39;100216.53;5013212;28;20061;-76
2023/01/08 03:44:14;;;;;;;4.65;2.38;;;;;;;15.85;65.35;100214.91;5013351;28;20034;-75
2023/01/08 03:46:47;;;;;;;5.22;2.50;;;;;;;16.03;64.16;100225.16;5012609;28;20112;-75
2023/01/08 03:49:14;;;;;;;3.08;2.53;;;;;;;15.62;65.31;100212.78;5012261;28;20045;-75
2023/01/08 03:51:45;;;;;;;8.45;2.40;;;;;;;15.37;66.31;100218.22;5013217;28;20037;-77
2023/01/08 03:54:12;;;;;;;;;;;;;;;15.12;66.55;100215.47;5013189;28;20038;-75
2023/01/08 03:56:38;;;;;;;13.57;2.58;;;;;;;15.11;67.06;100224.69;5012576;28;19920;-75
2023/01/08 03:59:03;;;;;;;6.97;2.35;;;;;;;14.43;69.14;100224.00;5012766;28;20045;-77
2023/01/08 04:01:29;;;;;;;6.60;2.70;;;;;;;14.98;68.11;100224.13;5012723;28;20037;-75
2023/01/08 04:03:54;;;;;;;6.32;2.22;;;;;;;15.21;66.40;100217.41;5012221;28;20434;-73
2023/01/08 04:06:19;;;;;;;4.82;2.60;;;;;;;15.14;67.20;100218.72;5012680;28;20466;-75
2023/01/08 04:08:47;;;;;;;4.85;2.22;;;;;;;14.67;69.41;100229.75;5012239;28;20135;-74
2023/01/08 04:11:13;;;;;;;5.93;2.40;;;;;;;14.40;69.76;100221.84;5012186;28;20387;-75
2023/01/08 04:13:38;;;;;;;5.72;2.20;;;;;;;15.47;66.50;100221.72;5012442;28;20041;-75
2023/01/08 04:16:04;;;;;;;4.22;2.72;;;;;;;14.94;67.70;100220.34;5011963;28;20038;-74
2023/01/08 04:18:30;;;;;;;9.38;2.80;;;;;;;15.53;66.41;100217.94;5012632;28;20030;-74
2023/01/08 04:20:55;;;;;;;6.68;3.00;;;;;;;15.41;66.27;100219.28;5011677;28;20049;-74
2023/01/08 04:23:21;;;;;;;4.15;2.38;;;;;;;15.42;65.72;100221.75;5012054;28;20137;-75
2023/01/08 04:25:46;;;;;;;6.00;2.95;;;;;;;15.34;66.25;100211.44;5027214;28;20148;-75
2023/01/08 04:28:11;;;;;;;9.98;2.90;;;;;;;15.04;66.93;100218.72;5012195;28;20045;-75
2023/01/08 04:30:37;;;;;;;4.82;2.90;;;;;;;15.54;66.09;100205.22;5012364;28;20032;-76
2023/01/08 04:33:02;;;;;;;6.93;2.83;;;;;;;15.82;65.05;100193.78;4994035;28;20077;-74
2023/01/08 04:35:27;;;;;;;4.22;2.90;;;;;;;15.39;65.83;100192.47;5026578;28;20063;-74
2023/01/08 04:37:53;;;;;;;5.80;3.08;;;;;;;15.17;66.54;100185.72;5011987;28;20043;-75
2023/01/08 04:40:18;;;;;;;6.13;3.13;;;;;;;15.84;64.98;100184.28;5012115;28;20124;-75
2023/01/08 04:42:43;;;;;;;6.30;2.97;;;;;;;15.47;65.46;100177.59;4994601;28;20096;-74
2023/01/08 04:45:09;;;;;;;4.68;2.90;;;;;;;15.63;65.33;100173.78;5011689;28;20124;-74
2023/01/08 04:47:34;;;;;;;6.68;3.17;;;;;;;15.50;65.67;100169.75;5010160;28;20046;-75
2023/01/08 04:50:00;;;;;;;4.68;2.85;;;;;;;15.26;66.51;100174.06;4994476;28;20038;-76
2023/01/08 04:52:27;;;;;;;7.90;3.67;;;;;;;15.35;66.49;100177.84;5011813;28;20402;-74
2023/01/08 04:54:53;;;;;;;8.93;3.30;;;;;;;15.54;65.01;100162.72;5012508;28;20033;-74
2023/01/08 04:57:18;;;;;;;7.93;3.17;;;;;;;16.19;62.94;100153.53;5012017;28;20041;-75
2023/01/08 04:59:43;;;;;;;8.07;3.78;;;;;;;15.77;64.89;100166.69;5011961;28;20558;-75
2023/01/08 05:02:09;;;;;;;5.55;3.38;;;;;;;15.87;64.13;100161.25;5009665;28;20054;-75
2023/01/08 05:04:34;;;;;;;4.70;4.00;;;;;;;15.43;65.35;100171.13;5026701;28;20474;-75
2023/01/08 05:07:00;;;;;;;10.07;3.47;;;;;;;15.98;63.42;100162.03;5011272;28;20089;-73
2023/01/08 05:09:25;;;;;;;5.97;3.20;;;;;;;15.80;64.24;100152.63;5011880;28;20116;-75
2023/01/08 05:11:50;;;;;;;6.97;3.78;;;;;;;15.61;65.00;100165.09;5004540;28;20510;-74
2023/01/08 05:14:16;;;;;;;5.15;3.80;;;;;;;15.35;66.05;100175.13;5003988;28;20042;-74
2023/01/08 05:16:41;;;;;;;7.43;3.75;;;;;;;15.09;66.60;100173.56;5011894;28;20129;-75
2023/01/08 05:19:07;;;;;;;8.30;3.33;;;;;;;14.65;68.05;100184.06;5014795;28;20029;-75
2023/01/08 05:21:32;;;;;;;8.50;2.90;;;;;;;15.18;66.18;100174.63;5016357;28;20495;-75
2023/01/08 05:23:58;;;;;;;5.15;2.72;;;;;;;14.64;67.73;100168.91;5015552;28;20053;-74
2023/01/08 05:26:23;;;;;;;7.80;3.00;;;;;;;15.17;66.25;100159.47;5015993;28;20041;-75
2023/01/08 05:28:48;;;;;;;10.07;3.28;;;;;;;15.21;65.52;100148.91;5016014;28;20410;-76
2023/01/08 05:31:14;;;;;;;8.45;2.67;;;;;;;14.67;66.57;100145.91;5015722;28;20112;-74
2023/01/08 05:33:40;;;;;;;5.15;2.60;;;;;;;15.13;66.07;100165.69;5015738;28;20038;-75
2023/01/08 05:36:07;;;;;;;9.25;2.22;;;;;;;14.51;67.80;100174.00;4997960;28;20030;-75
2023/01/08 05:38:33;;;;;;;5.18;1.95;;;;;;;15.06;65.57;100178.66;5015198;28;20125;-75
2023/01/08 05:40:58;;;;;;;8.25;2.72;;;;;;;14.90;65.77;100175.97;5015464;28;20122;-74
2023/01/08 05:43:24;;;;;;;6.50;1.95;;;;;;;14.70;66.87;100167.03;5015169;28;20033;-74
2023/01/08 05:45:49;;;;;;;9.48;2.28;;;;;;;14.80;66.53;100161.63;5015873;28;20041;-73
2023/01/08 05:48:14;;;;;;;6.93;2.78;;;;;;;14.93;65.67;100166.50;5014404;28;20100;-74
2023/01/08 05:50:40;;;;;;;10.88;2.35;;;;;;;15.35;64.42;100160.81;5014508;28;20042;-75
2023/01/08 05:53:06;;;;;;;8.45;2.17;;;;;;;15.48;63.84;100157.56;5014364;28;20053;-75
2023/01/08 05:55:32;;;;;;;9.30;2.17;;;;;;;14.57;66.69;100152.13;5014187;28;20034;-73
2023/01/08 05:58:02;;;;;;;5.40;1.67;;;;;;;14.62;66.13;100157.53;5014826;28;20504;-74
2023/01/08 06:00:28;;;;;;;9.10;2.27;;;;;;;14.33;68.36;100155.59;5015061;28;20347;-73
2023/01/08 06:02:53;;;;;;;8.15;2.08;;;;;;;15.05;64.48;100161.66;5014541;28;20116;-75
2023/01/08 06:05:18;;;;;;;9.63;1.85;;;;;;;14.00;68.42;100170.28;5014562;28;20034;-74
2023/01/08 06:07:44;;;;;;;5.28;1.63;;;;;;;14.91;64.82;100164.06;5015162;28;20429;-74
2023/01/08 06:10:09;;;;;;;3.65;1.80;;;;;;;14.88;64.51;100158.38;5015273;28;20037;-74
2023/01/08 06:12:35;;;;;;;6.45;2.25;;;;;;;14.65;65.08;100154.31;5015790;28;20026;-74
2023/01/08 06:15:01;;;;;;;6.82;1.33;;;;;;;15.37;62.93;100162.13;5015166;28;20494;-74
2023/01/08 06:17:26;;;;;;;5.30;1.80;;;;;;;14.71;64.65;100166.75;5013778;28;20052;-74
2023/01/08 06:19:52;;;;;;;5.65;1.70;;;;;;;14.26;66.78;100169.31;5014156;28;20121;-74
2023/01/08 06:22:17;;;;;;;12.55;2.50;;;;;;;14.77;65.76;100154.88;5014562;28;20057;-74
2023/01/08 06:24:43;;;;;;;12.88;1.95;;;;;;;15.10;63.91;100153.50;5014617;28;20184;-74
2023/01/08 06:27:08;;;;;;;5.35;1.73;;;;;;;15.09;64.28;100161.91;5028972;28;20042;-74
2023/01/08 06:29:33;;;;;;;6.20;2.08;;;;;;;14.23;66.39;100161.72;5015080;28;20046;-73
2023/01/08 06:31:59;;;;;;;5.43;2.30;;;;;;;14.22;67.05;100165.53;5013859;28;20061;-73
2023/01/08 06:34:24;;;;;;;8.98;2.50;;;;;;;14.76;64.79;100166.75;5012092;28;20108;-74
2023/01/08 06:36:50;;;;;;;5.18;1.67;;;;;;;14.95;64.31;100162.47;5014384;28;20117;-75
2023/01/08 06:39:16;;;;;;;4.97;2.35;;;;;;;14.45;66.07;100175.88;5014051;28;20042;-74
2023/01/08 06:41:42;;;;;;;9.20;2.05;;;;;;;14.40;66.16;100175.06;5013991;28;20073;-75
2023/01/08 06:44:07;;;;;;;7.22;2.08;;;;;;;14.79;64.16;100177.06;4996153;28;20061;-75
2023/01/08 06:46:37;;;;;;;5.25;1.85;;;;;;;14.53;64.93;100163.75;5013624;28;20054;-73
2023/01/08 06:49:02;;;;;;;11.32;2.78;;;;;;;14.51;64.93;100180.22;5013336;28;20033;-74
2023/01/08 06:51:28;;;;;;;13.35;2.25;;;;;;;14.79;64.45;100174.34;5013921;28;20447;-75
2023/01/08 06:53:53;;;;;;;5.53;2.53;;;;;;;14.15;66.80;100181.19;5013672;28;20049;-74
2023/01/08 06:56:18;;;;;;;6.22;1.98;;;;;;;14.36;64.92;100176.69;5027938;28;20038;-74
2023/01/08 06:58:44;;;;;;;4.68;1.88;;;;;;;14.69;64.16;100184.31;5013539;28;20050;-73
2023/01/08 07:01:14;;;;;;;10.43;2.25;;;;;;;14.07;66.76;100182.47;5013947;28;20029;-74
2023/01/08 07:03:39;;;;;;;8.35;2.10;;;;;;;14.43;65.25;100182.63;5013877;28;20591;-75
2023/01/08 07:06:05;;;;;;;4.63;1.90;;;;;;;13.59;68.36;100181.97;5013560;28;20132;-74
2023/01/08 07:08:30;;;;;;;7.72;1.98;;;;;;;13.61;67.67;100185.22;5013569;28;20042;-75
2023/01/08 07:10:55;;;;;;;10.40;2.42;;;;;;;14.30;65.88;100191.25;5014118;28;20044;-73
2023/01/08 07:13:22;;;;;;;11.27;2.30;;;;;;;13.84;66.90;100191.03;5013432;28;20038;-74
2023/01/08 07:15:48;;;;;;;6.05;1.88;;;;;;;14.25;64.69;100188.50;5014147;28;20069;-74
2023/01/08 07:18:13;;;;;;;4.82;1.92;;;;;;;14.59;64.11;100181.59;5013159;28;20042;-75
2023/01/08 07:20:39;;;;;;;8.20;1.95;;;;;;;14.40;65.50;100196.69;5012887;28;20513;-75
2023/01/08 07:23:09;;;;;;;7.70;2.95;;;;;;;14.02;66.36;100195.16;5013169;28;20052;-74
2023/01/08 07:25:34;;;;;;;16.42;2.10;;;;;;;13.56;67.20;100193.28;5013146;28;20057;-74
2023/01/08 07:27:59;;;;;;;5.38;2.47;;;;;;;14.91;63.31;100193.84;5012830;28;20046;-74
2023/01/08 07:30:25;;;;;;;9.38;2.10;;;;;;;14.66;63.33;100187.56;5013358;28;20018;-74
2023/01/08 07:32:50;;;;;;;10.23;1.90;;;;;;;14.34;65.12;100193.16;5012888;28;20069;-75
2023/01/08 07:35:16;;;;;;;11.48;1.88;;;;;;;13.92;65.85;100187.00;5012810;28;20045;-74
2023/01/08 07:37:42;;;;;;;4.03;2.05;;;;;;;14.29;64.85;100185.03;5013061;28;20038;-75
2023/01/08 07:40:09;;;;;;;5.65;1.73;;;;;;;13.80;66.54;100186.41;4995008;28;20456;-74
2023/01/08 07:42:35;;;;;;;5.53;1.85;;;;;;;13.43;67.65;100186.44;5012819;28;20464;-75
2023/01/08 07:45:01;;;;;;;6.45;1.77;;;;;;;13.18;68.64;100197.06;5027829;28;20041;-73
2023/01/08 07:47:26;;;;;;;5.00;1.70;;;;;;;14.24;65.28;100201.22;5012732;28;20045;-74
2023/01/08 07:49:51;;;;;;;4.72;1.95;;;;;;;14.09;64.99;100196.53;5012519;28;20042;-75
2023/01/08 07:52:17;;;;;;;4.15;2.00;;;;;;;13.68;64.94;100192.00;5012637;28;20382;-75
2023/01/08 07:54:42;;;;;;;9.07;2.42;;;;;;;14.12;65.34;100187.09;5028233;28;20139;-76
2023/01/08 07:57:08;;;;;;;3.83;1.85;;;;;;;14.16;64.82;100185.50;5011081;28;20038;-73
2023/01/08 07:59:33;;;;;;;9.65;1.98;;;;;;;14.33;63.46;100179.94;5012096;28;20045;-73
2023/01/08 08:01:58;;;;;;;6.43;1.90;;;;;;;13.80;66.27;100181.00;5011577;28;20058;-74
2023/01/08 08:04:24;;;;;;;8.20;2.17;;;;;;;14.03;64.68;100184.09;5012528;28;20089;-75
2023/01/08 08:06:50;;;;;;;12.27;2.85;;;;;;;14.57;62.35;100165.66;5013725;28;20041;-75
2023/01/08 08:09:16;;;;;;;6.32;2.10;;;;;;;13.55;65.54;100165.47;4995439;28;20084;-76
2023/01/08 08:11:41;;;;;;;9.52;1.98;;;;;;;13.85;64.58;100162.13;4994672;28;20033;-75
2023/01/08 08:14:07;;;;;;;12.65;2.30;;;;;;;14.30;63.22;100165.03;5012423;28;20034;-75
2023/01/08 08:16:33;;;;;;;12.30;2.25;;;;;;;14.27;63.35;100154.72;5012197;28;20438;-74
2023/01/08 08:18:59;;;;;;;6.65;1.95;;;;;;;14.24;63.27;100151.75;5012404;28;20022;-73
2023/01/08 08:21:24;;;;;;;10.43;2.60;;;;;;;14.26;63.36;100150.41;5012930;28;20196;-74
2023/01/08 08:23:50;;;;;;;3.03;1.58;;;;;;;13.86;63.68;100151.06;5012143;28;20041;-74
2023/01/08 08:26:15;;;;;;;7.93;2.35;;;;;;;14.49;61.28;100151.84;5012015;28;20088;-76
2023/01/08 08:28:41;;;;;;;12.77;3.47;;;;;;;14.18;62.25;100142.81;5011985;28;20167;-75
2023/01/08 08:31:06;;;;;;;10.57;2.65;;;;;;;13.99;63.43;100147.06;4993876;28;20121;-75
2023/01/08 08:33:32;;;;;;;7.30;2.03;;;;;;;14.57;61.00;100140.50;5012273;28;20271;-77
2023/01/08 08:35:57;;;;;;;3.58;1.80;;;;;;;14.20;62.06;100127.16;5011409;28;20055;-76
2023/01/08 08:38:24;;;;;;;5.32;1.63;;;;;;;13.84;62.90;100136.19;5010804;28;20121;-77
2023/01/08 08:40:49;;;;;;;5.45;2.33;;;;;;;13.96;63.38;100140.31;5008992;28;20113;-76
2023/01/08 08:43:15;;;;;;;7.53;2.17;;;;;;;13.82;63.53;100149.13;5011559;28;20517;-75
2023/01/08 08:45:40;;;;;;;8.90;2.15;;;;;;;14.50;61.92;100129.97;5012315;28;20041;-75
2023/01/08 08:48:07;;;;;;;10.82;3.38;;;;;;;13.52;64.95;100143.59;5011504;28;20132;-75
2023/01/08 08:50:33;;;;;;;7.78;2.35;;;;;;;13.45;64.63;100141.13;5011577;28;20033;-76
2023/01/08 08:53:01;;;;;;;9.65;2.83;;;;;;;13.07;65.75;100138.72;4995125;28;20030;-74
2023/01/08 08:55:28;;;;;;;11.00;2.60;;;;;;;13.99;63.68;100147.88;5015247;28;20042;-75
2023/01/08 08:57:53;;;;;;;14.40;2.63;;;;;;;13.85;63.56;100145.94;5014218;28;20030;-75
2023/01/08 09:00:18;;;;;;;9.55;2.10;;;;;;;13.37;66.05;100138.91;5021154;28;20414;-76
2023/01/08 09:02:44;;;;;;;9.82;2.45;;;;;;;13.14;65.68;100133.91;5026585;28;20042;-75
2023/01/08 09:05:10;;;;;;;8.02;1.70;;;;;;;13.12;65.10;100146.84;5024121;28;20358;-75
2023/01/08 09:07:36;;;;;;;17.48;2.67;;;;;;;13.71;63.75;100142.91;5024645;28;20049;-75
2023/01/08 09:10:02;;;;;;;9.50;2.60;;;;;;;14.67;60.50;100130.50;5022842;28;20049;-75
2023/01/08 09:12:28;;;;;;;10.27;2.50;;;;;;;13.39;63.67;100139.47;5025024;28;20461;-74
2023/01/08 09:14:55;;;;;;;6.97;2.17;;;;;;;13.95;63.45;100143.28;5026994;28;20037;-74
2023/01/08 09:17:21;;;;;;;10.70;1.88;;;;;;;13.98;62.42;100137.34;5018664;28;20058;-75
2023/01/08 09:19:47;;;;;;;12.02;2.38;;;;;;;13.56;63.56;100140.09;5023968;28;20417;-77
2023/01/08 09:22:12;;;;;;;12.02;2.70;;;;;;;13.57;63.70;100136.34;5020574;28;20033;-75
2023/01/08 09:24:38;;;;;;;16.38;3.13;;;;;;;13.51;63.79;100139.25;5024283;28;20080;-74
2023/01/08 09:27:03;;;;;;;11.68;1.88;;;;;;;13.82;63.36;100138.34;5026814;28;20137;-74
2023/01/08 09:29:28;;;;;;;13.38;2.20;;;;;;;12.98;65.35;100143.72;5026199;28;20355;-74
2023/01/08 09:31:54;;;;;;;17.60;3.13;;;;;;;13.27;65.27;100132.66;5024126;28;20026;-74
2023/01/08 09:34:20;;;;;;;11.63;1.90;;;;;;;13.29;64.31;100134.00;5023881;28;20030;-74
2023/01/08 09:36:45;;;;;;;5.63;1.83;;;;;;;12.91;65.58;100134.25;5021769;28;20026;-75
2023/01/08 09:39:10;;;;;;;17.08;3.35;;;;;;;13.12;64.72;100139.56;5024255;28;20440;-75
2023/01/08 09:41:44;;;;;;;12.40;2.10;;;;;;;13.48;63.13;100132.50;5027674;28;20041;-74
2023/01/08 09:44:14;;;;;;;12.00;2.33;;;;;;;12.85;64.69;100130.69;5008836;28;20453;-74
2023/01/08 09:46:39;;;;;;;9.90;2.55;;;;;;;13.50;63.56;100132.25;5022474;28;20072;-74
2023/01/08 09:49:11;;;;;;;6.63;2.47;;;;;;;13.59;63.31;100127.97;5008797;28;20030;-74
2023/01/08 09:51:37;;;;;;;9.90;1.98;;;;;;;13.99;61.88;100126.25;5005604;28;20040;-74
2023/01/08 09:54:06;;;;;;;10.45;1.70;;;;;;;13.08;64.21;100133.06;5022507;28;20095;-74
2023/01/08 09:56:33;;;;;;;15.40;2.63;;;;;;;13.38;63.75;100131.63;5026039;28;20030;-74
2023/01/08 09:59:02;;;;;;;12.07;2.67;;;;;;;13.52;63.60;100130.88;5026154;28;20032;-74
2023/01/08 10:01:39;;;;;;;19.35;2.65;;;;;;;13.48;62.97;100126.31;5025074;28;20101;-75
2023/01/08 10:04:14;;;;;;;15.50;2.20;;;;;;;13.75;61.75;100132.38;5023088;28;20386;-78
2023/01/08 10:06:40;;;;;;;18.25;2.78;;;;;;;13.47;62.77;100138.16;5021879;28;20029;-75
2023/01/08 10:09:06;;;;;;;8.27;1.83;;;;;;;13.65;62.79;100133.13;5023859;28;20168;-76
2023/01/08 10:11:45;;;;;;;14.80;2.28;;;;;;;13.91;61.58;100142.19;5024838;28;20037;-76
2023/01/08 10:14:21;;;;;;;13.25;2.08;;;;;;;14.30;60.08;100138.03;5020324;28;20042;-74
2023/01/08 10:16:49;;;;;;;11.63;2.58;;;;;;;13.73;61.36;100129.13;5022974;28;20517;-75
2023/01/08 10:19:15;;;;;;;14.15;2.47;;;;;;;13.57;63.15;100130.13;5017617;28;20037;-75
2023/01/08 10:21:40;;;;;;;12.23;2.15;;;;;;;14.60;59.22;100124.53;5018373;28;20109;-74
2023/01/08 10:24:06;;;;;;;11.70;2.03;;;;;;;13.53;63.18;100129.84;5025798;28;20097;-77
2023/01/08 10:26:35;;;;;;;15.15;2.13;;;;;;;13.63;62.33;100121.78;5004549;28;20037;-76
2023/01/08 10:29:07;;;;;;;12.15;1.92;;;;;;;14.21;61.67;100117.16;5025051;28;20037;-77
2023/01/08 10:31:38;;;;;;;10.07;2.50;;;;;;;13.80;62.26;100121.59;5018917;28;20461;-76
2023/01/08 10:34:09;;;;;;;17.70;2.30;;;;;;;14.33;61.70;100123.16;5013760;28;20049;-77
2023/01/08 10:36:39;;;;;;;6.63;2.33;;;;;;;13.78;62.66;100121.84;5015678;28;20460;-76
2023/01/08 10:39:05;;;;;;;11.50;2.80;;;;;;;14.35;61.17;100119.09;5013940;28;20081;-75
2023/01/08 10:41:36;;;;;;;20.60;2.00;;;;;;;13.84;63.44;100117.28;5015462;28;20034;-76
2023/01/08 10:44:05;;;;;;;9.18;1.50;;;;;;;14.05;63.22;100113.59;5015554;28;20093;-77
2023/01/08 10:46:36;;;;;;;9.52;3.42;;;;;;;14.47;61.75;100110.72;5010412;28;20050;-75
2023/01/08 10:49:02;;;;;;;;;;;;;;;13.94;62.99;100109.22;5007584;28;20185;-74
2023/01/08 10:51:30;;;;;;;12.05;2.33;;;;;;;14.97;60.15;100105.38;5015857;28;20350;-76
2023/01/08 10:53:59;;;;;;;11.25;1.77;;;;;;;13.86;62.50;100105.16;5012035;28;20399;-75
2023/01/08 10:56:30;;;;;;;13.18;3.67;;;;;;;14.28;62.09;100096.94;5014866;28;20578;-74
2023/01/08 10:58:56;;;;;;;;;;;;;;;13.73;63.38;100107.53;5012172;28;20053;-77
2023/01/08 11:01:27;;;;;;;17.67;3.58;;;;;;;13.82;62.70;100095.13;5007891;28;20301;-77
2023/01/08 11:03:56;;;;;;;20.92;2.45;;;;;;;14.34;61.26;100082.34;5019373;28;20040;-77
2023/01/08 11:06:26;;;;;;;13.45;2.55;;;;;;;14.58;60.99;100069.94;5024419;28;20025;-76
2023/01/08 11:08:57;;;;;;;17.30;2.25;;;;;;;15.20;59.37;100069.59;5017135;28;20048;-76
2023/01/08 11:11:23;;;;;;;14.50;2.85;;;;;;;14.38;62.68;100075.31;5011693;28;20033;-78
2023/01/08 11:14:18;;;;;;;14.98;2.58;;;;;;;14.61;61.27;100071.28;5011159;28;20065;-76
2023/01/08 11:16:43;;;;;;;10.60;1.70;;;;;;;14.54;60.89;100066.16;4947150;28;20044;-77
2023/01/08 11:19:18;;;;;;;12.63;2.28;;;;;;;14.59;60.37;100057.22;4953148;29;20107;-77
2023/01/08 11:22:04;;;;;;;7.03;2.38;;;;;;;14.00;62.17;100060.34;4954417;29;20047;-75
2023/01/08 11:24:35;;;;;;;19.73;2.20;;;;;;;14.41;61.64;100057.75;4953592;29;20094;-76
2023/01/08 11:27:11;;;;;;;10.75;2.33;;;;;;;14.30;61.48;100062.34;4953150;28;20051;-76